Time;durP1;ratioP1;P1;durP2;ratioP2;P2;SDS_P1;SDS_P2;PMS_P1;PMS_P2;Temp;Humidity;BMP_temperature;BMP_pressure;BME280_temperature;BME280_humidity;BME280_pressure;Samples;Min_cycle;Max_cycle;Signal;HPM_P1;HPM_P2
2022/08/04 00:00:47;;;;;;;7.65;3.08;;;;;;;;;;5007037;28;20401;-66
2022/08/04 00:03:18;;;;;;;10.10;3.50;;;;;;;;;;5022361;28;20045;-66
2022/08/04 00:05:52;;;;;;;11.65;3.47;;;;;;;;;;5022133;28;20057;-66
2022/08/04 00:08:23;;;;;;;11.10;3.88;;;;;;;;;;5016227;28;20512;-66
2022/08/04 00:10:54;;;;;;;9.98;3.60;;;;;;;;;;5026004;28;20527;-65
2022/08/04 00:13:23;;;;;;;9.60;4.22;;;;;;;;;;5024488;28;21280;-66
2022/08/04 00:15:52;;;;;;;7.13;3.60;;;;;;;;;;5023879;28;20052;-65
2022/08/04 00:18:21;;;;;;;12.32;4.00;;;;;;;;;;5018668;28;20489;-66
2022/08/04 00:20:48;;;;;;;21.65;3.65;;;;;;;;;;5016205;28;20505;-65
2022/08/04 00:23:17;;;;;;;14.88;4.18;;;;;;;;;;5025787;28;20099;-66
2022/08/04 00:25:45;;;;;;;13.52;4.03;;;;;;;;;;5023186;28;20393;-65
2022/08/04 00:28:13;;;;;;;11.55;3.67;;;;;;;;;;5024121;28;20064;-66
2022/08/04 00:30:42;;;;;;;11.82;3.72;;;;;;;;;;5020531;28;20052;-66
2022/08/04 00:33:09;;;;;;;9.63;3.70;;;;;;;;;;5025190;28;20049;-66
2022/08/04 00:35:36;;;;;;;9.82;3.90;;;;;;;;;;5025562;28;20053;-65
2022/08/04 00:38:04;;;;;;;10.30;3.42;;;;;;;;;;5024302;28;20631;-65
2022/08/04 00:40:33;;;;;;;11.23;4.00;;;;;;;;;;5022436;28;20057;-66
2022/08/04 00:43:06;;;;;;;11.35;4.18;;;;;;;;;;5018603;28;20050;-65
2022/08/04 00:45:46;;;;;;;13.18;4.63;;;;;;;;;;5019373;28;20054;-66
2022/08/04 00:48:22;;;;;;;9.63;3.78;;;;;;;;;;5024682;28;20061;-65
2022/08/04 00:50:53;;;;;;;11.27;4.38;;;;;;;;;;5026045;28;20519;-65
2022/08/04 00:53:28;;;;;;;14.70;4.70;;;;;;;;;;5023142;28;20049;-66
2022/08/04 00:56:05;;;;;;;12.73;4.68;;;;;;;;;;5022055;28;20126;-66
2022/08/04 00:58:43;;;;;;;8.30;4.40;;;;;;;;;;5023259;28;20165;-66
2022/08/04 01:01:19;;;;;;;12.70;4.60;;;;;;;;;;5019550;28;20049;-65
2022/08/04 01:03:50;;;;;;;9.43;3.95;;;;;;;;;;5022414;28;20045;-66
2022/08/04 01:06:22;;;;;;;9.85;4.13;;;;;;;;;;5012321;28;20064;-65
2022/08/04 01:08:55;;;;;;;10.82;4.07;;;;;;;;;;5019658;28;20110;-66
2022/08/04 01:11:22;;;;;;;;;;;;;;;;;;5019365;28;20884;-66
2022/08/04 01:13:57;;;;;;;9.18;4.30;;;;;;;;;;5019814;28;19933;-66
2022/08/04 01:16:26;;;;;;;14.45;4.05;;;;;;;;;;5025466;28;20150;-65
2022/08/04 01:18:57;;;;;;;9.38;3.63;;;;;;;;;;5013491;28;20064;-66
2022/08/04 01:21:37;;;;;;;8.77;3.97;;;;;;;;;;5023474;28;20056;-66
2022/08/04 01:24:22;;;;;;;12.35;4.10;;;;;;;;;;5009361;28;20053;-66
2022/08/04 01:26:58;;;;;;;7.13;3.95;;;;;;;;;;5022362;28;20089;-65
2022/08/04 01:29:27;;;;;;;11.35;4.30;;;;;;;;;;5021308;28;20049;-66
2022/08/04 01:32:01;;;;;;;9.13;3.95;;;;;;;;;;5021018;28;20136;-66
2022/08/04 01:34:30;;;;;;;7.57;4.22;;;;;;;;;;5025138;28;20073;-66
2022/08/04 01:37:03;;;;;;;9.15;4.00;;;;;;;;;;5025047;28;20510;-66
2022/08/04 01:39:42;;;;;;;10.10;4.22;;;;;;;;;;5024091;28;20049;-65
2022/08/04 01:42:10;;;;;;;13.40;3.92;;;;;;;;;;5024613;28;20057;-65
2022/08/04 01:44:40;;;;;;;16.50;4.72;;;;;;;;;;5024134;28;20053;-65
2022/08/04 01:47:08;;;;;;;20.83;4.78;;;;;;;;;;5021050;28;20555;-65
2022/08/04 01:49:36;;;;;;;11.63;4.22;;;;;;;;;;5021739;28;20751;-65
2022/08/04 01:52:03;;;;;;;13.10;4.68;;;;;;;;;;5022761;28;20048;-65
2022/08/04 01:54:31;;;;;;;8.20;4.20;;;;;;;;;;5018337;28;20061;-66
2022/08/04 01:56:59;;;;;;;11.68;4.63;;;;;;;;;;5004014;28;20428;-66
2022/08/04 01:59:29;;;;;;;12.52;4.75;;;;;;;;;;5020587;28;20756;-65
2022/08/04 02:01:57;;;;;;;9.57;4.18;;;;;;;;;;5023919;28;20080;-66
2022/08/04 02:04:24;;;;;;;12.70;4.70;;;;;;;;;;5023926;28;20045;-66
2022/08/04 02:07:01;;;;;;;16.40;4.25;;;;;;;;;;5008465;28;20053;-65
2022/08/04 02:09:31;;;;;;;11.27;4.45;;;;;;;;;;5006854;28;20061;-66
2022/08/04 02:12:03;;;;;;;10.07;4.20;;;;;;;;;;5020299;28;20108;-66
2022/08/04 02:14:41;;;;;;;7.28;4.50;;;;;;;;;;5018443;28;20045;-65
2022/08/04 02:17:13;;;;;;;12.75;4.90;;;;;;;;;;5018634;28;20087;-66
2022/08/04 02:19:49;;;;;;;9.50;4.57;;;;;;;;;;4999507;28;20053;-66
2022/08/04 02:22:18;;;;;;;14.77;4.70;;;;;;;;;;5023596;28;20053;-65
2022/08/04 02:24:47;;;;;;;10.70;5.05;;;;;;;;;;5017193;28;20049;-65
2022/08/04 02:27:14;;;;;;;15.88;4.82;;;;;;;;;;5009778;28;20050;-65
2022/08/04 02:29:47;;;;;;;11.45;4.30;;;;;;;;;;5021224;28;21229;-66
2022/08/04 02:32:20;;;;;;;13.82;4.50;;;;;;;;;;5023301;28;20053;-66
2022/08/04 02:34:49;;;;;;;7.50;4.07;;;;;;;;;;5020199;28;20081;-66
2022/08/04 02:37:17;;;;;;;10.00;4.38;;;;;;;;;;5006013;28;20543;-66
2022/08/04 02:39:45;;;;;;;10.60;4.03;;;;;;;;;;5021343;28;20053;-65
2022/08/04 02:42:13;;;;;;;10.77;4.70;;;;;;;;;;5021726;28;20127;-65
2022/08/04 02:44:40;;;;;;;10.07;4.65;;;;;;;;;;5001163;28;20132;-66
2022/08/04 02:47:08;;;;;;;12.02;4.70;;;;;;;;;;5023055;28;20053;-65
2022/08/04 02:49:38;;;;;;;10.95;4.65;;;;;;;;;;5020962;28;20485;-66
2022/08/04 02:52:07;;;;;;;11.73;4.45;;;;;;;;;;4998715;28;20057;-66
2022/08/04 02:54:39;;;;;;;12.88;4.57;;;;;;;;;;5002107;28;20065;-65
2022/08/04 02:57:09;;;;;;;17.90;4.95;;;;;;;;;;5023476;28;20518;-65
2022/08/04 02:59:43;;;;;;;10.73;4.75;;;;;;;;;;5003960;28;20061;-66
2022/08/04 03:02:10;;;;;;;13.88;4.30;;;;;;;;;;5006243;28;20053;-65
2022/08/04 03:04:49;;;;;;;11.27;4.45;;;;;;;;;;5024603;28;20053;-66
2022/08/04 03:07:34;;;;;;;11.98;4.28;;;;;;;;;;5024127;28;20555;-65
2022/08/04 03:10:28;;;;;;;9.45;4.20;;;;;;;;;;5010653;28;20397;-65
2022/08/04 03:13:10;;;;;;;13.95;4.60;;;;;;;;;;5021941;28;20068;-66
2022/08/04 03:16:01;;;;;;;12.98;4.80;;;;;;;;;;5005737;28;20065;-65
2022/08/04 03:18:47;;;;;;;9.43;3.80;;;;;;;;;;5026013;28;20452;-66
2022/08/04 03:21:23;;;;;;;10.80;4.40;;;;;;;;;;5006125;28;20060;-66
2022/08/04 03:24:00;;;;;;;11.98;4.90;;;;;;;;;;5019025;28;20526;-66
2022/08/04 03:26:40;;;;;;;10.70;4.47;;;;;;;;;;5025849;28;20128;-66
2022/08/04 03:29:27;;;;;;;8.15;3.88;;;;;;;;;;5008391;28;20057;-65
2022/08/04 03:32:15;;;;;;;13.77;4.25;;;;;;;;;;5024192;28;20497;-66
2022/08/04 03:34:54;;;;;;;10.23;4.22;;;;;;;;;;5020984;28;20057;-66
2022/08/04 03:37:39;;;;;;;18.65;4.38;;;;;;;;;;5025194;28;20054;-65
2022/08/04 03:40:33;;;;;;;13.48;4.20;;;;;;;;;;5024336;28;20594;-66
2022/08/04 03:43:19;;;;;;;7.70;3.85;;;;;;;;;;5027343;28;20107;-65
2022/08/04 03:46:10;;;;;;;10.60;4.70;;;;;;;;;;5017386;28;20057;-66
2022/08/04 03:48:55;;;;;;;10.50;3.95;;;;;;;;;;5025784;28;20433;-66
2022/08/04 03:54:44;;;;;;;9.45;4.70;;;;;;;;;;5021620;28;20180;-65
2022/08/04 03:57:29;;;;;;;11.70;3.95;;;;;;;;;;5022353;28;20075;-65
2022/08/04 04:00:03;;;;;;;13.25;4.45;;;;;;;;;;5015809;28;20065;-65
2022/08/04 04:02:46;;;;;;;11.13;4.40;;;;;;;;;;5023081;28;20049;-65
2022/08/04 04:05:27;;;;;;;9.52;4.22;;;;;;;;;;5026934;28;20056;-65
2022/08/04 04:08:06;;;;;;;14.43;4.55;;;;;;;;;;5025130;28;20053;-65
2022/08/04 04:10:47;;;;;;;11.13;4.20;;;;;;;;;;5019968;28;20054;-66
2022/08/04 04:13:18;;;;;;;18.60;4.28;;;;;;;;;;5003589;28;20058;-66
2022/08/04 04:16:00;;;;;;;10.38;4.03;;;;;;;;;;5016987;28;20056;-66
2022/08/04 04:18:36;;;;;;;9.75;3.83;;;;;;;;;;5021537;28;20145;-65
2022/08/04 04:21:19;;;;;;;12.05;3.80;;;;;;;;;;5019754;28;20103;-66
2022/08/04 04:23:46;;;;;;;;;;;;;;;;;;5025123;28;20049;-65
2022/08/04 04:26:25;;;;;;;12.07;4.05;;;;;;;;;;5025067;28;19987;-66
2022/08/04 04:29:03;;;;;;;11.55;4.70;;;;;;;;;;5023608;28;20053;-66
2022/08/04 04:31:48;;;;;;;9.77;4.53;;;;;;;;;;5023833;28;20049;-65
2022/08/04 04:34:24;;;;;;;7.43;3.63;;;;;;;;;;5005018;28;20607;-66
2022/08/04 04:36:58;;;;;;;10.57;4.20;;;;;;;;;;5022675;28;20049;-66
2022/08/04 04:39:32;;;;;;;8.85;3.78;;;;;;;;;;5025467;28;20049;-66
2022/08/04 04:42:08;;;;;;;10.85;3.75;;;;;;;;;;5005232;28;20127;-65
2022/08/04 04:44:46;;;;;;;11.32;4.63;;;;;;;;;;5018598;28;20169;-66
2022/08/04 04:47:16;;;;;;;8.45;3.97;;;;;;;;;;5021936;28;20057;-65
2022/08/04 04:49:50;;;;;;;9.27;3.90;;;;;;;;;;5025170;28;20806;-66
2022/08/04 04:52:22;;;;;;;12.00;4.65;;;;;;;;;;5023427;28;20052;-66
2022/08/04 04:54:53;;;;;;;12.73;4.03;;;;;;;;;;5002392;28;20061;-65
2022/08/04 04:57:22;;;;;;;9.52;4.47;;;;;;;;;;5024988;28;20059;-65
2022/08/04 04:59:50;;;;;;;10.73;4.72;;;;;;;;;;5024766;28;20049;-66
2022/08/04 05:02:29;;;;;;;11.38;3.83;;;;;;;;;;5024369;28;20445;-65
2022/08/04 05:05:07;;;;;;;9.77;4.55;;;;;;;;;;5025811;28;20111;-65
2022/08/04 05:07:49;;;;;;;11.40;4.40;;;;;;;;;;5023346;28;20662;-65
2022/08/04 05:10:23;;;;;;;10.63;4.43;;;;;;;;;;5023277;28;20551;-66
2022/08/04 05:12:53;;;;;;;14.05;5.22;;;;;;;;;;5025017;28;20056;-66
2022/08/04 05:15:22;;;;;;;9.38;4.90;;;;;;;;;;5020444;28;20057;-66
2022/08/04 05:17:51;;;;;;;15.10;4.90;;;;;;;;;;5024864;28;20488;-65
2022/08/04 05:20:22;;;;;;;7.90;4.57;;;;;;;;;;5023602;28;20064;-66
2022/08/04 05:22:52;;;;;;;12.85;5.13;;;;;;;;;;5025573;28;20059;-65
2022/08/04 05:25:21;;;;;;;10.45;4.78;;;;;;;;;;5020397;28;20076;-66
2022/08/04 05:27:51;;;;;;;12.13;5.13;;;;;;;;;;5012846;28;20054;-65
2022/08/04 05:30:19;;;;;;;12.40;4.82;;;;;;;;;;5007681;28;20052;-66
2022/08/04 05:32:49;;;;;;;8.18;4.20;;;;;;;;;;5024536;28;20049;-65
2022/08/04 05:35:21;;;;;;;13.35;5.10;;;;;;;;;;5016765;28;20048;-66
2022/08/04 05:37:51;;;;;;;8.55;4.13;;;;;;;;;;5020067;28;20548;-65
2022/08/04 05:40:19;;;;;;;13.07;4.60;;;;;;;;;;5017086;28;20096;-65
2022/08/04 05:42:48;;;;;;;15.43;4.55;;;;;;;;;;5021776;28;20052;-65
2022/08/04 05:45:15;;;;;;;10.73;4.68;;;;;;;;;;5018773;28;20119;-65
2022/08/04 05:47:43;;;;;;;14.30;5.60;;;;;;;;;;5001226;28;20108;-66
2022/08/04 05:50:10;;;;;;;15.23;6.05;;;;;;;;;;5018751;28;20049;-66
2022/08/04 05:52:38;;;;;;;11.70;4.20;;;;;;;;;;5002785;28;20054;-66
2022/08/04 05:55:08;;;;;;;11.90;5.40;;;;;;;;;;5023777;28;20072;-66
2022/08/04 05:57:35;;;;;;;14.68;5.32;;;;;;;;;;5020225;28;20053;-65
2022/08/04 06:00:04;;;;;;;19.25;5.97;;;;;;;;;;5021906;28;20115;-66
2022/08/04 06:02:31;;;;;;;15.35;5.55;;;;;;;;;;5020501;28;20052;-66
2022/08/04 06:04:59;;;;;;;12.25;5.88;;;;;;;;;;5007095;28;20060;-65
2022/08/04 06:07:27;;;;;;;13.73;5.78;;;;;;;;;;5021271;28;20116;-65
2022/08/04 06:09:54;;;;;;;14.75;5.93;;;;;;;;;;5018785;28;20049;-66
2022/08/04 06:12:25;;;;;;;14.73;5.95;;;;;;;;;;5019575;28;20049;-66
2022/08/04 06:14:55;;;;;;;19.77;6.78;;;;;;;;;;5020200;28;20061;-66
2022/08/04 06:17:23;;;;;;;12.35;5.57;;;;;;;;;;5023261;28;20052;-66
2022/08/04 06:19:52;;;;;;;14.57;5.85;;;;;;;;;;5024581;28;20053;-67
2022/08/04 06:22:20;;;;;;;15.10;6.10;;;;;;;;;;5005723;28;20056;-67
2022/08/04 06:24:49;;;;;;;14.13;5.82;;;;;;;;;;5024958;28;20547;-65
2022/08/04 06:27:17;;;;;;;14.15;5.90;;;;;;;;;;5020041;28;20076;-64
2022/08/04 06:29:47;;;;;;;13.80;6.10;;;;;;;;;;5018938;28;20054;-65
2022/08/04 06:32:26;;;;;;;13.60;5.35;;;;;;;;;;5015772;28;20146;-66
2022/08/04 06:34:54;;;;;;;14.30;5.97;;;;;;;;;;5018524;28;20088;-66
2022/08/04 06:37:22;;;;;;;13.10;5.60;;;;;;;;;;5003215;28;20405;-66
2022/08/04 06:39:50;;;;;;;10.40;5.47;;;;;;;;;;5018041;28;20115;-66
2022/08/04 06:42:17;;;;;;;11.60;5.50;;;;;;;;;;5022577;28;20041;-65
2022/08/04 06:44:47;;;;;;;12.43;5.50;;;;;;;;;;5018185;28;20104;-66
2022/08/04 06:47:17;;;;;;;13.73;5.78;;;;;;;;;;5005772;28;20132;-66
2022/08/04 06:49:46;;;;;;;12.27;5.50;;;;;;;;;;5028770;28;20476;-66
2022/08/04 06:52:16;;;;;;;12.60;5.47;;;;;;;;;;5022529;28;21009;-66
2022/08/04 06:54:43;;;;;;;11.80;5.35;;;;;;;;;;5023650;28;20053;-65
2022/08/04 06:57:12;;;;;;;10.77;5.07;;;;;;;;;;5025315;28;20056;-66
2022/08/04 06:59:41;;;;;;;18.88;5.75;;;;;;;;;;5009014;28;20065;-66
2022/08/04 07:02:13;;;;;;;13.05;5.70;;;;;;;;;;5022286;28;20042;-66
2022/08/04 07:04:41;;;;;;;12.18;5.13;;;;;;;;;;5027030;28;20128;-66
2022/08/04 07:07:08;;;;;;;13.60;5.35;;;;;;;;;;5028106;28;20530;-66
2022/08/04 07:09:36;;;;;;;10.02;4.95;;;;;;;;;;5027512;28;20053;-66
2022/08/04 07:12:03;;;;;;;12.95;5.20;;;;;;;;;;5027472;28;20103;-66
2022/08/04 07:14:31;;;;;;;12.57;5.00;;;;;;;;;;5026154;28;20484;-66
2022/08/04 07:16:59;;;;;;;14.95;5.03;;;;;;;;;;5027342;28;20057;-66
2022/08/04 07:19:28;;;;;;;12.20;5.05;;;;;;;;;;5020413;28;20053;-66
2022/08/04 07:21:56;;;;;;;16.27;4.57;;;;;;;;;;5027134;28;20053;-66
2022/08/04 07:24:29;;;;;;;10.20;4.45;;;;;;;;;;5016266;28;20046;-66
2022/08/04 07:26:56;;;;;;;10.02;3.85;;;;;;;;;;5016585;28;20061;-66
2022/08/04 07:29:24;;;;;;;15.95;4.32;;;;;;;;;;5022219;28;20056;-66
2022/08/04 07:31:51;;;;;;;9.98;4.10;;;;;;;;;;5021152;28;20604;-66
2022/08/04 07:34:19;;;;;;;12.90;3.95;;;;;;;;;;5025970;28;20095;-66
2022/08/04 07:36:48;;;;;;;13.43;3.47;;;;;;;;;;5021040;28;20057;-65
2022/08/04 07:39:15;;;;;;;9.80;2.60;;;;;;;;;;5022439;28;20068;-66
2022/08/04 07:41:43;;;;;;;8.63;2.85;;;;;;;;;;5016668;28;20060;-66
2022/08/04 07:44:11;;;;;;;7.35;2.30;;;;;;;;;;5017957;28;20558;-65
2022/08/04 07:46:38;;;;;;;13.85;3.13;;;;;;;;;;5023981;28;20053;-65
2022/08/04 07:49:06;;;;;;;11.90;2.95;;;;;;;;;;5015024;28;20127;-66
2022/08/04 07:51:35;;;;;;;6.47;2.35;;;;;;;;;;5017379;28;20045;-66
2022/08/04 07:54:04;;;;;;;7.72;2.30;;;;;;;;;;5022678;28;20061;-66
2022/08/04 07:56:32;;;;;;;9.10;2.53;;;;;;;;;;5022584;28;20049;-65
2022/08/04 07:59:00;;;;;;;8.07;2.28;;;;;;;;;;5022837;28;20163;-65
2022/08/04 08:01:28;;;;;;;8.00;1.98;;;;;;;;;;5025938;28;20087;-66
2022/08/04 08:03:56;;;;;;;9.88;2.58;;;;;;;;;;5021284;28;20046;-66
2022/08/04 08:06:24;;;;;;;8.38;2.38;;;;;;;;;;5020785;28;20065;-66
2022/08/04 08:08:51;;;;;;;7.18;2.05;;;;;;;;;;5022343;28;20076;-66
2022/08/04 08:11:19;;;;;;;8.27;2.17;;;;;;;;;;5007912;28;20084;-66
2022/08/04 08:13:47;;;;;;;11.25;2.50;;;;;;;;;;5022224;28;20539;-66
2022/08/04 08:16:14;;;;;;;8.35;2.10;;;;;;;;;;5025131;28;20045;-66
2022/08/04 08:18:42;;;;;;;7.15;1.77;;;;;;;;;;5017032;28;20447;-66
2022/08/04 08:21:09;;;;;;;7.78;2.05;;;;;;;;;;5026181;28;20049;-66
2022/08/04 08:23:36;;;;;;;6.18;2.08;;;;;;;;;;5021162;28;20147;-65
2022/08/04 08:26:06;;;;;;;6.35;1.75;;;;;;;;;;5018158;28;20084;-66
2022/08/04 08:28:34;;;;;;;7.35;1.95;;;;;;;;;;5026791;28;20485;-66
2022/08/04 08:31:02;;;;;;;10.25;2.33;;;;;;;;;;5026784;28;20056;-66
2022/08/04 08:33:29;;;;;;;8.18;2.35;;;;;;;;;;5006557;28;20048;-66
2022/08/04 08:36:02;;;;;;;5.70;2.30;;;;;;;;;;5024062;28;20054;-66
2022/08/04 08:38:29;;;;;;;;;;;;;;;;;;5018170;28;20712;-66
2022/08/04 08:40:59;;;;;;;4.63;1.65;;;;;;;;;;5021921;28;19954;-65
2022/08/04 08:43:41;;;;;;;5.22;1.48;;;;;;;;;;5017262;28;20112;-66
2022/08/04 08:46:41;;;;;;;4.22;1.50;;;;;;;;;;5024342;28;20050;-65
2022/08/04 08:49:23;;;;;;;7.85;1.33;;;;;;;;;;4942330;28;20070;-66
2022/08/04 08:51:53;;;;;;;4.60;1.13;;;;;;;;;;4941964;28;20051;-66
2022/08/04 08:54:45;;;;;;;5.88;1.30;;;;;;;;;;4966736;28;20053;-66
2022/08/04 08:57:20;;;;;;;4.40;1.40;;;;;;;;;;4998818;28;20408;-65
2022/08/04 08:59:54;;;;;;;4.45;1.60;;;;;;;;;;5023777;28;20056;-66
2022/08/04 09:02:48;;;;;;;4.32;1.20;;;;;;;;;;5021612;28;20049;-66
2022/08/04 09:05:30;;;;;;;2.67;1.15;;;;;;;;;;5021682;28;20052;-66
2022/08/04 09:08:02;;;;;;;2.17;1.05;;;;;;;;;;5014650;28;20065;-66
2022/08/04 09:10:32;;;;;;;2.85;1.38;;;;;;;;;;5020146;28;20045;-65
2022/08/04 09:13:03;;;;;;;3.10;1.15;;;;;;;;;;5015287;28;20058;-66
2022/08/04 09:15:35;;;;;;;5.95;1.10;;;;;;;;;;5019031;28;20056;-66
2022/08/04 09:18:06;;;;;;;2.47;0.95;;;;;;;;;;5005288;28;20060;-66
2022/08/04 09:20:36;;;;;;;4.10;1.10;;;;;;;;;;5021847;28;20508;-65
2022/08/04 09:23:16;;;;;;;6.45;1.70;;;;;;;;;;5024226;28;20412;-66
2022/08/04 09:25:48;;;;;;;7.38;1.40;;;;;;;;;;5026567;28;20057;-66
2022/08/04 09:28:20;;;;;;;4.10;1.30;;;;;;;;;;5017947;28;20050;-66
2022/08/04 09:30:53;;;;;;;7.35;1.70;;;;;;;;;;5021489;28;20056;-66
2022/08/04 09:33:20;;;;;;;;;;;;;;;;;;5016050;28;20045;-66
2022/08/04 09:35:49;;;;;;;6.55;1.30;;;;;;;;;;5024163;28;19925;-66
2022/08/04 09:38:20;;;;;;;6.95;1.90;;;;;;;;;;5023683;28;20060;-65
2022/08/04 09:40:50;;;;;;;6.07;1.60;;;;;;;;;;5016465;28;20076;-66
2022/08/04 09:43:21;;;;;;;3.92;1.60;;;;;;;;;;5023781;28;20053;-66
2022/08/04 09:45:53;;;;;;;6.13;1.40;;;;;;;;;;5020846;28;20497;-66
2022/08/04 09:48:25;;;;;;;3.78;1.30;;;;;;;;;;5022882;28;20053;-66
2022/08/04 09:50:56;;;;;;;6.03;1.50;;;;;;;;;;5024612;28;20132;-66
2022/08/04 09:53:38;;;;;;;5.70;1.50;;;;;;;;;;5022299;28;20532;-66
2022/08/04 09:56:10;;;;;;;3.40;1.42;;;;;;;;;;5021378;28;20095;-66
2022/08/04 09:58:45;;;;;;;4.43;1.73;;;;;;;;;;5025416;28;20045;-66
2022/08/04 10:01:15;;;;;;;3.40;1.33;;;;;;;;;;5020760;28;20045;-66
2022/08/04 10:03:44;;;;;;;3.20;1.45;;;;;;;;;;5024659;28;20481;-66
2022/08/04 10:06:19;;;;;;;4.82;1.40;;;;;;;;;;5001310;28;20049;-66
2022/08/04 10:09:00;;;;;;;4.35;1.40;;;;;;;;;;5021654;28;20390;-66
2022/08/04 10:11:34;;;;;;;6.10;1.40;;;;;;;;;;5003641;28;20161;-66
2022/08/04 10:14:04;;;;;;;6.32;1.80;;;;;;;;;;5005102;28;20053;-66
2022/08/04 10:16:38;;;;;;;4.13;1.27;;;;;;;;;;5011484;28;20688;-66
2022/08/04 10:19:10;;;;;;;6.22;1.85;;;;;;;;;;5022700;28;20084;-66
2022/08/04 10:21:43;;;;;;;5.25;1.48;;;;;;;;;;5018086;28;20049;-66
2022/08/04 10:24:15;;;;;;;4.97;1.33;;;;;;;;;;5009434;28;20725;-66
2022/08/04 10:26:46;;;;;;;8.85;1.73;;;;;;;;;;5020252;28;20057;-66
2022/08/04 10:29:16;;;;;;;5.40;1.70;;;;;;;;;;5026572;28;20100;-66
2022/08/04 10:31:47;;;;;;;9.40;1.60;;;;;;;;;;5026653;28;20530;-66
2022/08/04 10:34:19;;;;;;;4.03;1.42;;;;;;;;;;5026441;28;20061;-66
2022/08/04 10:36:50;;;;;;;3.73;1.17;;;;;;;;;;5008492;28;20054;-66
2022/08/04 10:39:19;;;;;;;3.90;1.50;;;;;;;;;;5026461;28;20288;-66
2022/08/04 10:41:50;;;;;;;4.53;1.38;;;;;;;;;;5020927;28;20594;-66
2022/08/04 10:44:23;;;;;;;3.35;1.30;;;;;;;;;;5026790;28;20046;-66
2022/08/04 10:46:53;;;;;;;4.60;2.08;;;;;;;;;;5023444;28;20619;-66
2022/08/04 10:49:23;;;;;;;5.25;1.40;;;;;;;;;;5023603;28;20057;-66
2022/08/04 10:51:53;;;;;;;5.35;1.40;;;;;;;;;;5009739;28;20049;-66
2022/08/04 10:54:24;;;;;;;3.95;1.27;;;;;;;;;;5021310;28;20046;-66
2022/08/04 10:56:56;;;;;;;4.80;1.55;;;;;;;;;;5026031;28;20063;-65
2022/08/04 10:59:27;;;;;;;5.32;1.90;;;;;;;;;;5027272;28;20052;-66
2022/08/04 11:01:59;;;;;;;7.90;1.58;;;;;;;;;;5027414;28;20112;-66
2022/08/04 11:04:30;;;;;;;4.85;1.48;;;;;;;;;;5018358;28;20080;-65
2022/08/04 11:06:59;;;;;;;7.25;1.55;;;;;;;;;;5024345;28;20515;-66
2022/08/04 11:09:26;;;;;;;4.45;1.65;;;;;;;;;;5004056;28;20056;-66
2022/08/04 11:11:55;;;;;;;7.32;1.75;;;;;;;;;;5024135;28;20045;-66
2022/08/04 11:14:25;;;;;;;4.10;1.65;;;;;;;;;;5020224;28;20050;-66
2022/08/04 11:16:53;;;;;;;3.95;1.73;;;;;;;;;;5022926;28;20060;-66
2022/08/04 11:19:29;;;;;;;8.32;1.90;;;;;;;;;;5023430;28;20640;-66
2022/08/04 11:21:57;;;;;;;6.63;1.90;;;;;;;;;;5027717;28;20061;-66
2022/08/04 11:24:27;;;;;;;5.47;1.50;;;;;;;;;;5027627;28;20432;-66
2022/08/04 11:26:58;;;;;;;3.78;1.30;;;;;;;;;;5022871;28;20061;-64
2022/08/04 11:29:27;;;;;;;4.03;1.42;;;;;;;;;;5024210;28;20045;-64
2022/08/04 11:31:58;;;;;;;3.97;1.30;;;;;;;;;;5023771;28;20075;-64
2022/08/04 11:34:27;;;;;;;4.57;1.40;;;;;;;;;;5008035;28;20136;-64
2022/08/04 11:37:00;;;;;;;8.00;1.85;;;;;;;;;;5026012;28;20053;-64
2022/08/04 11:39:29;;;;;;;7.38;2.20;;;;;;;;;;5024850;28;20677;-64
2022/08/04 11:42:06;;;;;;;4.82;1.40;;;;;;;;;;5023895;28;20111;-64
2022/08/04 11:44:35;;;;;;;5.43;1.65;;;;;;;;;;5025368;28;20053;-64
2022/08/04 11:47:05;;;;;;;8.05;1.90;;;;;;;;;;5022414;28;20049;-65
2022/08/04 11:49:40;;;;;;;5.93;1.75;;;;;;;;;;5025543;28;20109;-64
2022/08/04 11:52:08;;;;;;;8.00;1.75;;;;;;;;;;5026854;28;20050;-63
2022/08/04 11:54:37;;;;;;;4.60;1.42;;;;;;;;;;5024303;28;20056;-64
2022/08/04 11:57:05;;;;;;;5.53;1.55;;;;;;;;;;5022431;28;20057;-64
2022/08/04 11:59:34;;;;;;;8.77;1.98;;;;;;;;;;5020940;28;20052;-64
2022/08/04 12:02:06;;;;;;;6.38;1.60;;;;;;;;;;5008488;28;20062;-65
2022/08/04 12:04:46;;;;;;;8.15;2.45;;;;;;;;;;5020618;28;20049;-64
2022/08/04 12:07:17;;;;;;;7.30;2.10;;;;;;;;;;5006776;28;20135;-64
2022/08/04 12:09:47;;;;;;;6.43;1.80;;;;;;;;;;5022799;28;20136;-64
2022/08/04 12:12:20;;;;;;;6.53;2.13;;;;;;;;;;5026630;28;20435;-63
2022/08/04 12:14:50;;;;;;;6.13;1.85;;;;;;;;;;5008204;28;20049;-64
2022/08/04 12:17:22;;;;;;;7.25;2.15;;;;;;;;;;5021242;28;20159;-63
2022/08/04 12:19:52;;;;;;;8.25;2.60;;;;;;;;;;5025833;28;20057;-64
2022/08/04 12:22:20;;;;;;;7.03;2.33;;;;;;;;;;5022206;28;20045;-64
2022/08/04 12:24:52;;;;;;;5.35;2.03;;;;;;;;;;5022602;28;20049;-64
2022/08/04 12:27:22;;;;;;;7.22;1.88;;;;;;;;;;5019490;28;20041;-63
2022/08/04 12:29:52;;;;;;;6.47;2.28;;;;;;;;;;5026549;28;20131;-64
2022/08/04 12:32:22;;;;;;;8.98;2.40;;;;;;;;;;5022016;28;20049;-64
2022/08/04 12:34:55;;;;;;;11.70;2.40;;;;;;;;;;5023251;28;20066;-64
2022/08/04 12:37:27;;;;;;;9.40;2.17;;;;;;;;;;5021686;28;20056;-64
2022/08/04 12:39:55;;;;;;;7.00;2.50;;;;;;;;;;5021245;28;20501;-64
2022/08/04 12:42:24;;;;;;;9.32;2.58;;;;;;;;;;5025395;28;20045;-64
2022/08/04 12:44:53;;;;;;;9.98;3.15;;;;;;;;;;5018383;28;20053;-63
2022/08/04 12:47:24;;;;;;;10.90;2.50;;;;;;;;;;5004344;28;20068;-63
2022/08/04 12:49:53;;;;;;;10.48;2.35;;;;;;;;;;5017906;28;20045;-63
2022/08/04 12:52:21;;;;;;;13.07;3.30;;;;;;;;;;5024638;28;20135;-63
2022/08/04 12:54:52;;;;;;;11.20;3.13;;;;;;;;;;5020677;28;20053;-63
2022/08/04 12:57:21;;;;;;;12.80;3.05;;;;;;;;;;5020987;28;20444;-64
2022/08/04 12:59:48;;;;;;;8.18;2.55;;;;;;;;;;5025998;28;20081;-64
2022/08/04 13:02:19;;;;;;;11.93;3.08;;;;;;;;;;5018490;28;20136;-64
2022/08/04 13:04:47;;;;;;;9.65;3.00;;;;;;;;;;5020412;28;20691;-64
2022/08/04 13:07:19;;;;;;;10.85;3.20;;;;;;;;;;5020963;28;20441;-64
2022/08/04 13:09:47;;;;;;;12.43;3.08;;;;;;;;;;5021986;28;20103;-64
2022/08/04 13:12:15;;;;;;;11.93;2.90;;;;;;;;;;5022031;28;20056;-64
2022/08/04 13:14:43;;;;;;;11.70;3.10;;;;;;;;;;5018521;28;20050;-64
2022/08/04 13:17:11;;;;;;;11.10;2.97;;;;;;;;;;5019719;28;20499;-64
2022/08/04 13:19:39;;;;;;;8.85;2.50;;;;;;;;;;5014235;28;20720;-63
2022/08/04 13:22:07;;;;;;;8.77;3.10;;;;;;;;;;5024279;28;20477;-63
2022/08/04 13:24:37;;;;;;;8.57;2.97;;;;;;;;;;5020703;28;20050;-64
2022/08/04 13:27:09;;;;;;;6.97;2.65;;;;;;;;;;5020308;28;20084;-64
2022/08/04 13:29:37;;;;;;;7.57;2.70;;;;;;;;;;5021723;28;20077;-64
2022/08/04 13:32:05;;;;;;;8.90;3.00;;;;;;;;;;5012962;28;20057;-64
2022/08/04 13:34:33;;;;;;;8.38;3.40;;;;;;;;;;5022220;28;20049;-63
2022/08/04 13:37:02;;;;;;;7.05;2.40;;;;;;;;;;5006485;28;20092;-64
2022/08/04 13:39:30;;;;;;;8.10;2.60;;;;;;;;;;5017551;28;20045;-64
2022/08/04 13:42:02;;;;;;;5.90;2.47;;;;;;;;;;5014897;28;20064;-64
2022/08/04 13:44:30;;;;;;;;;;;;;;;;;;5017868;28;20835;-64
2022/08/04 13:46:59;;;;;;;5.63;2.47;;;;;;;;;;5018775;28;20354;-64
2022/08/04 13:49:26;;;;;;;5.78;2.33;;;;;;;;;;5023896;28;20058;-64
2022/08/04 13:51:56;;;;;;;11.38;2.00;;;;;;;;;;5020327;28;20057;-64
2022/08/04 13:54:23;;;;;;;4.10;1.70;;;;;;;;;;5012539;28;20559;-65
2022/08/04 13:56:52;;;;;;;5.50;1.50;;;;;;;;;;5020678;28;20064;-63
2022/08/04 13:59:23;;;;;;;4.68;1.63;;;;;;;;;;5010906;28;20405;-64
2022/08/04 14:01:58;;;;;;;4.80;1.52;;;;;;;;;;5020825;28;20056;-63
2022/08/04 14:04:27;;;;;;;7.32;1.25;;;;;;;;;;5005563;28;20072;-64
2022/08/04 14:06:56;;;;;;;2.28;1.23;;;;;;;;;;5014801;28;20049;-64
2022/08/04 14:09:24;;;;;;;3.28;1.40;;;;;;;;;;5015392;28;20108;-65
2022/08/04 14:11:52;;;;;;;3.75;1.20;;;;;;;;;;5024179;28;20058;-64
2022/08/04 14:14:25;;;;;;;3.33;1.60;;;;;;;;;;5000966;28;20053;-64
2022/08/04 14:16:56;;;;;;;3.95;1.88;;;;;;;;;;5013971;28;20572;-65
2022/08/04 14:19:23;;;;;;;4.30;1.35;;;;;;;;;;5019518;28;20062;-65
2022/08/04 14:21:51;;;;;;;7.70;1.50;;;;;;;;;;5016075;28;20480;-64
2022/08/04 14:24:23;;;;;;;5.25;1.42;;;;;;;;;;5010837;28;20057;-64
2022/08/04 14:26:51;;;;;;;3.50;1.50;;;;;;;;;;5024303;28;20089;-64
2022/08/04 14:29:19;;;;;;;4.80;1.50;;;;;;;;;;5021859;28;20455;-64
2022/08/04 14:31:49;;;;;;;4.97;1.60;;;;;;;;;;5019511;28;20049;-64
2022/08/04 14:34:27;;;;;;;4.00;1.42;;;;;;;;;;5019865;28;20120;-65
2022/08/04 14:36:54;;;;;;;3.88;1.55;;;;;;;;;;5020728;28;20049;-64
2022/08/04 14:39:36;;;;;;;3.80;1.73;;;;;;;;;;5021255;28;20064;-64
2022/08/04 14:42:04;;;;;;;4.45;1.77;;;;;;;;;;5013410;28;20057;-65
2022/08/04 14:44:31;;;;;;;2.95;1.63;;;;;;;;;;5016184;28;20049;-64
2022/08/04 14:47:01;;;;;;;3.25;1.65;;;;;;;;;;5021985;28;20061;-65
2022/08/04 14:49:28;;;;;;;4.75;1.70;;;;;;;;;;5021203;28;20496;-65
2022/08/04 14:51:57;;;;;;;5.43;1.63;;;;;;;;;;5021226;28;20050;-65
2022/08/04 14:54:28;;;;;;;7.22;1.85;;;;;;;;;;5019416;28;20072;-65
2022/08/04 14:56:57;;;;;;;10.02;1.90;;;;;;;;;;5001309;28;20569;-65
2022/08/04 14:59:25;;;;;;;14.13;2.00;;;;;;;;;;4999261;28;20042;-65
2022/08/04 15:01:53;;;;;;;10.20;2.28;;;;;;;;;;4999010;28;20050;-65
2022/08/04 15:04:23;;;;;;;3.45;1.70;;;;;;;;;;5004136;28;20575;-65
2022/08/04 15:06:51;;;;;;;2.88;1.73;;;;;;;;;;5004895;28;20049;-65